Time;durP1;ratioP1;P1;durP2;ratioP2;P2;SDS_P1;SDS_P2;PMS_P1;PMS_P2;Temp;Humidity;BMP_temperature;BMP_pressure;BME280_temperature;BME280_humidity;BME280_pressure;Samples;Min_cycle;Max_cycle;Signal;HPM_P1;HPM_P2
2023/03/13 00:02:45;;;;;;;25.27;6.70;;;10.60;99.90;;;;;;5024153;28;20209;-64
2023/03/13 00:08:55;;;;;;;27.40;7.57;;;10.70;99.90;;;;;;5022928;28;20213;-62
2023/03/13 00:11:23;;;;;;;27.67;7.40;;;10.70;99.90;;;;;;5027764;28;20251;-62
2023/03/13 00:13:55;;;;;;;20.60;7.77;;;10.70;99.90;;;;;;5032703;28;20275;-62
2023/03/13 00:16:24;;;;;;;26.57;7.27;;;10.70;99.90;;;;;;5042821;28;20642;-62
2023/03/13 00:18:55;;;;;;;19.53;6.73;;;10.80;99.90;;;;;;5033611;28;20193;-64
2023/03/13 00:21:25;;;;;;;22.43;7.43;;;10.80;99.90;;;;;;5032488;28;20248;-63
2023/03/13 00:23:54;;;;;;;28.23;8.17;;;10.80;99.90;;;;;;5032737;28;20221;-63
2023/03/13 00:26:24;;;;;;;19.57;8.10;;;10.80;99.90;;;;;;5032415;28;20228;-64
2023/03/13 00:32:33;;;;;;;22.43;8.47;;;10.80;99.90;;;;;;5014242;28;20227;-63
2023/03/13 00:35:03;;;;;;;18.97;8.27;;;10.80;99.90;;;;;;5020965;28;20261;-63
2023/03/13 00:37:32;;;;;;;19.40;7.53;;;10.90;99.90;;;;;;5014312;28;20735;-62
2023/03/13 00:40:00;;;;;;;15.73;8.07;;;10.90;99.90;;;;;;4989685;28;20214;-64
2023/03/13 00:42:28;;;;;;;26.17;8.80;;;10.90;99.90;;;;;;5011430;28;20221;-63
2023/03/13 00:44:56;;;;;;;21.90;8.10;;;10.90;99.90;;;;;;5020234;28;20256;-62
2023/03/13 00:47:25;;;;;;;16.27;8.27;;;10.90;99.90;;;;;;4994477;28;20227;-63
2023/03/13 00:49:53;;;;;;;22.73;8.90;;;11.00;99.90;;;;;;5003325;28;20271;-63
2023/03/13 00:52:23;;;;;;;18.33;8.73;;;11.00;99.90;;;;;;5032839;28;20644;-62
2023/03/13 00:54:52;;;;;;;24.73;9.87;;;11.00;99.90;;;;;;5008783;28;20175;-63
2023/03/13 00:57:20;;;;;;;25.40;9.27;;;11.00;99.90;;;;;;5000160;28;20226;-62
2023/03/13 00:59:48;;;;;;;22.27;9.80;;;11.10;99.90;;;;;;5012914;28;20230;-63
2023/03/13 01:02:16;;;;;;;20.00;9.77;;;11.10;99.90;;;;;;5018312;28;20225;-62
2023/03/13 01:04:45;;;;;;;23.67;9.90;;;11.20;99.90;;;;;;5022318;28;20226;-62
2023/03/13 01:07:13;;;;;;;24.43;10.50;;;11.30;99.90;;;;;;5013664;28;20205;-62
2023/03/13 01:09:42;;;;;;;20.80;10.30;;;11.30;99.90;;;;;;5031215;28;20225;-62
2023/03/13 01:12:11;;;;;;;20.67;10.27;;;11.30;99.90;;;;;;5032755;28;20295;-62
2023/03/13 01:14:39;;;;;;;23.13;9.77;;;11.30;99.90;;;;;;5016525;28;20221;-62
2023/03/13 01:17:07;;;;;;;19.50;9.80;;;11.40;99.90;;;;;;5047648;28;20247;-62
2023/03/13 01:19:35;;;;;;;18.77;9.90;;;11.40;99.90;;;;;;5039382;28;20189;-62
2023/03/13 01:22:03;;;;;;;21.53;9.53;;;11.40;99.90;;;;;;5039372;28;20193;-62
2023/03/13 01:25:10;;;;;;;18.77;8.67;;;11.50;99.90;;;;;;5012231;28;20246;-62
2023/03/13 01:27:40;;;;;;;19.40;9.07;;;11.50;99.90;;;;;;5009202;28;20292;-62
2023/03/13 01:33:50;;;;;;;19.37;9.00;;;11.50;99.90;;;;;;5032312;28;20307;-62
2023/03/13 01:36:19;;;;;;;18.33;8.23;;;11.60;99.90;;;;;;5008305;28;20215;-62
2023/03/13 01:38:48;;;;;;;16.40;8.60;;;11.60;99.90;;;;;;5004115;28;20752;-61
2023/03/13 01:41:19;;;;;;;16.67;8.70;;;11.60;99.90;;;;;;5001377;28;20237;-62
2023/03/13 01:43:49;;;;;;;17.77;8.33;;;11.60;99.90;;;;;;5014774;28;20217;-61
2023/03/13 01:46:20;;;;;;;13.37;7.17;;;11.70;99.90;;;;;;5011331;28;20504;-62
2023/03/13 01:48:53;;;;;;;13.13;7.10;;;11.70;99.90;;;;;;5034658;28;20266;-61
2023/03/13 01:51:25;;;;;;;11.80;7.33;;;11.80;99.90;;;;;;4999475;28;20257;-62
2023/03/13 01:57:21;;;;;;;11.47;7.40;;;11.80;99.90;;;;;;5011630;28;20280;-62
2023/03/13 01:59:56;;;;;;;12.23;6.70;;;11.90;99.90;;;;;;5013087;28;20215;-62
2023/03/13 02:03:04;;;;;;;13.37;6.87;;;11.90;99.90;;;;;;5015084;28;20221;-62
2023/03/13 02:05:33;;;;;;;7.50;6.37;;;12.00;99.90;;;;;;5011636;28;20226;-62
2023/03/13 02:08:07;;;;;;;10.23;6.93;;;11.90;99.90;;;;;;5009075;28;20234;-62
2023/03/13 02:11:12;;;;;;;8.83;6.97;;;11.90;99.90;;;;;;5003251;28;20253;-62
2023/03/13 02:13:43;;;;;;;10.67;7.00;;;12.00;99.90;;;;;;5007756;28;20833;-62
2023/03/13 02:16:14;;;;;;;11.23;7.07;;;12.00;99.90;;;;;;5009088;28;20256;-61
2023/03/13 02:18:43;;;;;;;11.10;6.40;;;12.00;99.90;;;;;;4999017;28;20685;-61
2023/03/13 02:21:16;;;;;;;11.87;7.43;;;12.00;99.90;;;;;;5006023;28;20214;-62
2023/03/13 02:23:54;;;;;;;9.20;6.90;;;12.00;99.90;;;;;;5015032;28;20249;-62
2023/03/13 02:26:24;;;;;;;9.67;7.13;;;12.10;99.90;;;;;;5002986;28;20709;-62
2023/03/13 02:28:52;;;;;;;10.03;7.17;;;12.10;99.90;;;;;;5009893;28;20643;-62
2023/03/13 02:31:21;;;;;;;9.00;6.70;;;12.10;99.90;;;;;;5019820;28;20710;-61
2023/03/13 02:33:49;;;;;;;12.40;7.77;;;12.20;99.90;;;;;;5033858;28;20244;-62
2023/03/13 02:36:18;;;;;;;8.03;7.23;;;12.10;99.90;;;;;;5031333;28;20229;-61
2023/03/13 02:38:51;;;;;;;15.03;7.37;;;12.20;99.90;;;;;;5030243;28;20221;-62
2023/03/13 02:41:21;;;;;;;12.10;7.20;;;12.30;99.90;;;;;;5034540;28;20225;-62
2023/03/13 02:43:50;;;;;;;9.23;6.90;;;12.30;99.90;;;;;;5020947;28;20224;-62
2023/03/13 02:46:21;;;;;;;8.57;7.50;;;12.30;99.90;;;;;;5026383;28;20279;-62
2023/03/13 02:48:52;;;;;;;13.73;7.67;;;12.30;99.90;;;;;;5033707;28;20248;-62
2023/03/13 02:51:28;;;;;;;10.00;7.07;;;12.40;99.90;;;;;;5033247;28;20632;-62
2023/03/13 02:54:02;;;;;;;7.47;6.73;;;12.40;99.90;;;;;;5027469;28;20630;-62
2023/03/13 02:56:35;;;;;;;6.07;5.57;;;12.40;99.90;;;;;;5033135;28;20235;-62
2023/03/13 02:59:05;;;;;;;8.93;6.60;;;12.50;99.90;;;;;;5031568;28;20228;-61
2023/03/13 03:01:34;;;;;;;6.90;6.00;;;12.50;99.90;;;;;;5030996;28;20513;-62
2023/03/13 03:04:21;;;;;;;6.47;5.60;;;12.60;99.90;;;;;;5007384;28;20195;-61
2023/03/13 03:14:13;;;;;;;7.20;5.90;;;12.60;99.90;;;;;;4994459;28;20233;-62
2023/03/13 03:16:41;;;;;;;7.47;5.40;;;12.70;99.90;;;;;;5012099;28;20225;-62
2023/03/13 03:19:10;;;;;;;8.10;5.60;;;12.60;99.90;;;;;;5014570;28;20245;-62
2023/03/13 03:21:39;;;;;;;5.80;5.30;;;12.70;99.90;;;;;;5011875;28;20268;-62
2023/03/13 03:24:07;;;;;;;6.80;5.00;;;12.70;99.90;;;;;;5014027;28;20218;-61
2023/03/13 03:26:36;;;;;;;9.77;5.60;;;12.70;99.90;;;;;;5013699;28;20273;-62
2023/03/13 03:29:04;;;;;;;4.97;4.40;;;12.80;99.90;;;;;;5019712;28;20283;-62
2023/03/13 03:31:35;;;;;;;7.23;4.90;;;12.80;99.90;;;;;;5029638;28;20194;-62
2023/03/13 03:34:03;;;;;;;8.20;6.33;;;12.80;99.90;;;;;;5028258;28;20270;-62
2023/03/13 03:36:50;;;;;;;6.50;5.70;;;12.80;99.90;;;;;;5028835;28;20229;-61
2023/03/13 03:39:18;;;;;;;4.70;4.30;;;12.90;99.90;;;;;;5036052;28;20746;-61
2023/03/13 03:41:46;;;;;;;4.50;4.10;;;13.00;99.90;;;;;;5032428;28;20229;-62
2023/03/13 03:44:14;;;;;;;4.50;4.10;;;13.10;99.90;;;;;;5033288;28;20233;-61
2023/03/13 03:46:44;;;;;;;8.57;4.10;;;13.10;99.90;;;;;;5022567;28;20225;-62
2023/03/13 03:49:12;;;;;;;6.73;4.00;;;13.10;99.90;;;;;;5040601;28;20201;-62
2023/03/13 03:51:40;;;;;;;5.27;4.07;;;13.10;99.90;;;;;;5026681;28;20225;-62
2023/03/13 03:54:09;;;;;;;3.90;3.60;;;13.10;99.90;;;;;;5005585;28;20238;-62
2023/03/13 03:56:37;;;;;;;6.00;4.10;;;13.10;99.90;;;;;;5003549;28;20758;-61
2023/03/13 04:02:48;;;;;;;4.47;3.73;;;13.10;99.90;;;;;;5032592;28;20239;-62
2023/03/13 04:05:16;;;;;;;6.60;3.73;;;13.10;99.90;;;;;;5026916;28;20225;-62
2023/03/13 04:07:44;;;;;;;5.83;3.67;;;13.10;99.90;;;;;;5031481;28;20611;-61
2023/03/13 04:10:12;;;;;;;4.87;3.73;;;13.10;99.90;;;;;;5033191;28;20640;-61
2023/03/13 04:12:44;;;;;;;5.83;3.50;;;13.10;99.90;;;;;;5030821;28;20711;-62
2023/03/13 04:15:12;;;;;;;6.43;3.47;;;13.10;99.90;;;;;;5041427;28;20213;-62
2023/03/13 04:17:41;;;;;;;6.93;3.47;;;13.10;99.90;;;;;;5014317;28;20274;-62
2023/03/13 04:20:13;;;;;;;4.23;3.83;;;13.10;99.90;;;;;;5032736;28;20229;-62
2023/03/13 04:22:42;;;;;;;4.03;3.47;;;13.20;99.90;;;;;;5030153;28;20248;-62
2023/03/13 04:25:10;;;;;;;5.83;3.53;;;13.10;99.90;;;;;;5041758;28;20225;-62
2023/03/13 04:27:38;;;;;;;11.50;4.27;;;13.10;99.90;;;;;;5032077;28;20213;-62
2023/03/13 04:30:08;;;;;;;5.63;3.97;;;13.10;99.90;;;;;;5032569;28;20316;-61
2023/03/13 04:32:36;;;;;;;3.83;3.50;;;13.10;99.90;;;;;;5025472;28;20252;-62
2023/03/13 04:35:05;;;;;;;7.97;3.43;;;13.10;99.90;;;;;;5032810;28;20232;-62
2023/03/13 04:37:35;;;;;;;6.80;3.60;;;13.10;99.90;;;;;;5032331;28;20280;-61
2023/03/13 04:40:03;;;;;;;7.17;3.67;;;13.10;99.90;;;;;;5017901;28;20197;-62
2023/03/13 04:42:32;;;;;;;6.87;3.27;;;13.10;99.90;;;;;;5031898;28;20583;-61
2023/03/13 04:45:00;;;;;;;3.37;3.07;;;13.20;99.90;;;;;;5032021;28;20217;-61
2023/03/13 04:47:28;;;;;;;4.40;3.30;;;13.20;99.90;;;;;;5019948;28;20213;-62
2023/03/13 04:49:56;;;;;;;9.30;3.60;;;13.20;99.90;;;;;;5023393;28;20271;-62
2023/03/13 04:52:25;;;;;;;4.23;3.67;;;13.20;99.90;;;;;;5032314;28;20190;-62
2023/03/13 04:54:54;;;;;;;5.07;3.40;;;13.20;99.90;;;;;;5033038;28;20193;-61
2023/03/13 04:57:22;;;;;;;6.83;3.60;;;13.30;99.90;;;;;;5012461;28;20296;-61
2023/03/13 05:03:31;;;;;;;7.73;3.90;;;13.20;99.90;;;;;;5027381;28;20220;-62
2023/03/13 05:06:00;;;;;;;5.77;3.30;;;13.20;99.90;;;;;;5032015;28;20602;-61
2023/03/13 05:08:28;;;;;;;5.43;3.83;;;13.20;99.90;;;;;;5038438;28;20228;-62
2023/03/13 05:10:57;;;;;;;7.83;4.20;;;13.20;99.90;;;;;;5040141;28;20275;-62
2023/03/13 05:13:26;;;;;;;8.30;3.10;;;13.20;99.90;;;;;;5032334;28;20283;-61
2023/03/13 05:15:54;;;;;;;5.77;3.00;;;13.30;99.90;;;;;;5032623;28;20231;-61
2023/03/13 05:18:22;;;;;;;7.40;3.80;;;13.20;99.90;;;;;;5034668;28;20330;-61
2023/03/13 05:20:51;;;;;;;3.37;3.03;;;13.20;99.90;;;;;;5035611;28;20236;-62
2023/03/13 05:23:19;;;;;;;5.83;3.30;;;13.20;99.90;;;;;;5040045;28;20217;-61
2023/03/13 05:25:47;;;;;;;9.63;3.20;;;13.10;99.90;;;;;;5035209;28;20221;-61
2023/03/13 05:28:17;;;;;;;4.50;3.30;;;13.10;99.90;;;;;;5036302;28;20217;-61
2023/03/13 05:30:45;;;;;;;6.13;3.90;;;13.10;99.90;;;;;;5035394;28;20217;-61
2023/03/13 05:33:13;;;;;;;7.80;3.20;;;13.10;99.90;;;;;;5035576;28;20267;-61
2023/03/13 05:35:42;;;;;;;9.10;3.60;;;13.10;99.90;;;;;;5035636;28;20217;-61
2023/03/13 05:38:10;;;;;;;6.90;3.20;;;13.10;99.90;;;;;;5035843;28;20225;-61
2023/03/13 05:40:39;;;;;;;9.00;3.53;;;13.10;99.90;;;;;;5028768;28;20201;-61
2023/03/13 05:43:07;;;;;;;6.73;3.53;;;13.10;99.90;;;;;;5018192;28;20268;-62
2023/03/13 05:45:37;;;;;;;7.83;3.30;;;13.20;99.90;;;;;;5035122;28;20266;-61
2023/03/13 05:48:05;;;;;;;5.50;3.20;;;13.20;99.90;;;;;;5033978;28;20276;-61
2023/03/13 05:50:34;;;;;;;9.17;3.40;;;13.20;99.90;;;;;;5034686;28;20217;-62
2023/03/13 05:53:02;;;;;;;9.67;3.80;;;13.20;99.90;;;;;;5034962;28;20267;-62
2023/03/13 05:55:30;;;;;;;8.07;3.10;;;13.20;99.90;;;;;;5033371;28;20641;-62
2023/03/13 05:57:58;;;;;;;9.00;3.50;;;13.20;99.90;;;;;;4998169;28;20226;-62
2023/03/13 06:00:27;;;;;;;9.73;3.30;;;13.20;99.90;;;;;;5029437;28;20220;-61
2023/03/13 06:02:56;;;;;;;10.17;3.87;;;13.20;99.90;;;;;;5034608;28;20221;-61
2023/03/13 06:05:24;;;;;;;7.47;3.60;;;13.20;99.90;;;;;;5023703;28;20287;-63
2023/03/13 06:07:53;;;;;;;6.37;3.53;;;13.10;99.90;;;;;;5033013;28;20217;-61
2023/03/13 06:17:48;;;;;;;10.37;3.50;;;13.20;99.90;;;;;;5028283;28;20252;-61
2023/03/13 06:20:21;;;;;;;7.77;3.70;;;13.20;99.90;;;;;;5029652;28;20695;-63
2023/03/13 06:22:49;;;;;;;6.57;2.93;;;13.20;99.90;;;;;;5034852;28;20217;-63
2023/03/13 06:25:19;;;;;;;10.33;3.17;;;13.20;99.90;;;;;;5035326;28;20214;-62
2023/03/13 06:27:47;;;;;;;7.87;3.27;;;13.30;99.90;;;;;;5034057;28;20307;-63
2023/03/13 06:30:15;;;;;;;4.93;3.20;;;13.30;99.90;;;;;;5033068;28;20214;-62
2023/03/13 06:32:44;;;;;;;7.93;3.13;;;13.30;99.90;;;;;;5027158;28;20691;-63
2023/03/13 06:35:12;;;;;;;12.20;3.30;;;13.30;99.90;;;;;;5033963;28;20233;-62
2023/03/13 06:41:23;;;;;;;7.77;3.77;;;13.20;99.90;;;;;;5028266;28;20217;-62
2023/03/13 06:43:51;;;;;;;12.33;3.67;;;13.30;99.90;;;;;;5032217;28;20683;-63
2023/03/13 06:50:00;;;;;;;10.00;3.20;;;13.30;99.90;;;;;;5024780;28;20255;-63
2023/03/13 06:56:10;;;;;;;12.07;3.53;;;13.30;99.90;;;;;;5006836;28;20213;-62
2023/03/13 06:58:42;;;;;;;6.73;2.90;;;13.30;99.90;;;;;;5028580;28;20226;-63
2023/03/13 07:01:13;;;;;;;6.37;3.40;;;13.40;99.90;;;;;;5032109;28;20690;-63
2023/03/13 07:07:22;;;;;;;14.53;3.40;;;13.40;99.90;;;;;;5030696;28;20245;-62
2023/03/13 07:13:41;;;;;;;10.10;3.03;;;13.50;99.90;;;;;;5025950;28;20233;-62
2023/03/13 07:20:10;;;;;;;6.30;3.10;;;13.50;99.90;;;;;;5029279;28;20252;-62
2023/03/13 07:22:39;;;;;;;7.37;3.23;;;13.60;99.90;;;;;;5020839;28;20197;-62
2023/03/13 07:25:08;;;;;;;7.27;3.20;;;13.60;99.90;;;;;;5043413;28;20258;-63
2023/03/13 07:27:37;;;;;;;7.70;3.43;;;13.60;99.90;;;;;;5035831;28;20209;-62
2023/03/13 07:30:08;;;;;;;8.97;3.20;;;13.60;99.90;;;;;;5033485;28;20263;-63
2023/03/13 07:32:36;;;;;;;8.37;3.47;;;13.60;99.90;;;;;;5033434;28;20217;-62
2023/03/13 07:35:05;;;;;;;9.43;3.57;;;13.60;99.90;;;;;;5027617;28;20236;-62
2023/03/13 07:37:34;;;;;;;8.40;3.50;;;13.50;99.90;;;;;;5045321;28;20284;-62
2023/03/13 07:40:03;;;;;;;10.93;3.77;;;13.40;99.90;;;;;;5014572;28;20198;-63
2023/03/13 07:42:31;;;;;;;13.83;3.73;;;13.20;99.90;;;;;;5032179;28;20232;-63
2023/03/13 07:45:00;;;;;;;8.07;3.73;;;13.10;99.90;;;;;;5033594;28;20221;-63
2023/03/13 07:47:29;;;;;;;8.37;3.70;;;13.00;99.90;;;;;;5033535;28;20225;-62
2023/03/13 07:49:59;;;;;;;8.37;3.47;;;12.90;99.90;;;;;;5032492;28;20233;-63
2023/03/13 07:52:27;;;;;;;10.60;4.07;;;12.90;99.90;;;;;;5033739;28;20703;-63
2023/03/13 07:54:55;;;;;;;6.83;3.47;;;13.00;99.90;;;;;;5034221;28;20202;-62
2023/03/13 07:57:24;;;;;;;9.70;3.70;;;13.00;99.90;;;;;;5033199;28;20234;-63
2023/03/13 07:59:52;;;;;;;10.80;4.10;;;12.90;99.90;;;;;;5033302;28;20218;-63
2023/03/13 08:02:20;;;;;;;10.83;3.80;;;12.90;99.90;;;;;;5033329;28;20229;-63
2023/03/13 08:04:53;;;;;;;7.40;3.67;;;12.90;99.90;;;;;;5027576;28;20624;-63
2023/03/13 08:07:25;;;;;;;15.77;4.77;;;13.00;99.90;;;;;;5031673;28;20205;-63
2023/03/13 08:09:53;;;;;;;7.73;3.90;;;13.00;99.90;;;;;;5036968;28;20189;-63
2023/03/13 08:12:21;;;;;;;12.87;4.13;;;13.10;99.90;;;;;;5033014;28;20236;-63
2023/03/13 08:14:50;;;;;;;7.43;3.70;;;13.10;99.90;;;;;;5033069;28;20737;-63
2023/03/13 08:17:21;;;;;;;7.03;4.10;;;13.10;99.90;;;;;;5033387;28;20271;-63
2023/03/13 08:19:49;;;;;;;8.57;3.87;;;13.20;99.90;;;;;;5033321;28;20248;-63
2023/03/13 08:22:19;;;;;;;4.93;3.43;;;13.40;99.90;;;;;;5033493;28;20275;-63
2023/03/13 08:24:49;;;;;;;6.33;3.40;;;13.50;99.90;;;;;;5019443;28;20257;-63
2023/03/13 08:27:18;;;;;;;8.10;3.50;;;13.50;99.90;;;;;;5032945;28;20217;-63
2023/03/13 08:29:48;;;;;;;6.00;3.37;;;13.50;99.90;;;;;;5032505;28;20213;-63
2023/03/13 08:32:18;;;;;;;5.13;3.67;;;13.70;99.90;;;;;;5033010;28;20221;-63
2023/03/13 08:34:46;;;;;;;9.37;3.10;;;13.80;99.90;;;;;;5031669;28;20245;-63
2023/03/13 08:37:15;;;;;;;6.73;3.40;;;14.10;99.90;;;;;;5033283;28;20201;-63
2023/03/13 08:39:48;;;;;;;3.23;3.00;;;14.30;99.90;;;;;;5032645;28;20224;-63
2023/03/13 08:42:18;;;;;;;4.57;3.20;;;14.50;99.90;;;;;;5032509;28;20213;-64
2023/03/13 08:44:47;;;;;;;5.40;3.70;;;14.70;99.90;;;;;;5025353;28;20280;-63
2023/03/13 08:47:16;;;;;;;5.23;3.00;;;14.90;99.90;;;;;;5032765;28;20231;-63
2023/03/13 08:49:45;;;;;;;4.87;3.30;;;15.30;99.90;;;;;;5032551;28;20225;-63
2023/03/13 08:52:13;;;;;;;6.30;3.13;;;15.60;99.90;;;;;;5033953;28;20568;-63
2023/03/13 08:54:43;;;;;;;11.07;3.40;;;15.70;99.90;;;;;;5046592;28;20241;-63
2023/03/13 08:57:14;;;;;;;3.37;2.80;;;15.70;99.90;;;;;;5024555;28;20766;-63
2023/03/13 08:59:42;;;;;;;4.33;3.00;;;15.40;99.90;;;;;;5036240;28;20273;-63
2023/03/13 09:02:10;;;;;;;6.63;3.10;;;15.20;99.90;;;;;;5040791;28;20236;-64
2023/03/13 09:04:39;;;;;;;4.73;2.80;;;15.20;99.90;;;;;;5033417;28;20725;-63
2023/03/13 09:07:07;;;;;;;3.40;2.87;;;15.10;99.90;;;;;;5029311;28;20201;-64
2023/03/13 09:09:36;;;;;;;7.83;4.10;;;15.20;99.90;;;;;;5035757;28;20737;-63
2023/03/13 09:12:04;;;;;;;4.47;2.93;;;15.70;99.90;;;;;;5036119;28;20280;-63
2023/03/13 09:14:34;;;;;;;6.57;2.57;;;15.90;99.90;;;;;;5035818;28;20280;-63
2023/03/13 09:17:04;;;;;;;4.50;2.70;;;16.20;99.90;;;;;;5034390;28;20257;-64
2023/03/13 09:19:32;;;;;;;7.57;2.60;;;16.40;99.90;;;;;;5038856;28;20186;-63
2023/03/13 09:22:00;;;;;;;6.80;2.97;;;16.30;99.90;;;;;;5036614;28;20670;-63
2023/03/13 09:24:29;;;;;;;4.07;2.53;;;16.10;99.90;;;;;;5033125;28;20218;-63
2023/03/13 09:26:57;;;;;;;2.63;2.43;;;16.00;99.90;;;;;;5036046;28;20636;-63
2023/03/13 09:29:28;;;;;;;4.80;2.87;;;16.00;99.90;;;;;;5035622;28;20227;-64
2023/03/13 09:31:58;;;;;;;4.57;2.70;;;16.00;99.90;;;;;;5035812;28;20660;-63
2023/03/13 09:34:27;;;;;;;2.27;2.17;;;15.80;99.90;;;;;;5034709;28;20205;-63
2023/03/13 09:36:55;;;;;;;3.90;2.50;;;15.60;99.90;;;;;;5035410;28;20728;-63
2023/03/13 09:39:23;;;;;;;3.47;2.90;;;15.40;99.90;;;;;;5035741;28;20226;-63
2023/03/13 09:41:57;;;;;;;3.13;2.50;;;15.20;99.90;;;;;;5035989;28;20217;-63
2023/03/13 09:44:27;;;;;;;2.73;2.53;;;15.20;99.90;;;;;;5025442;28;20276;-63
2023/03/13 09:47:02;;;;;;;7.20;2.93;;;15.20;99.90;;;;;;5035471;28;20217;-64
2023/03/13 09:49:35;;;;;;;3.07;2.73;;;15.30;99.90;;;;;;5035507;28;20227;-64
2023/03/13 09:52:14;;;;;;;6.70;2.10;;;15.70;99.90;;;;;;5036128;28;20191;-64
2023/03/13 09:54:48;;;;;;;2.40;2.20;;;16.70;99.90;;;;;;5035323;28;20303;-63
2023/03/13 09:57:23;;;;;;;4.30;2.30;;;17.40;99.90;;;;;;5034667;28;20261;-63
2023/03/13 09:59:57;;;;;;;2.97;2.33;;;17.40;99.90;;;;;;5025979;28;20216;-63
2023/03/13 10:02:30;;;;;;;2.53;2.20;;;17.10;99.90;;;;;;5033661;28;20647;-63
2023/03/13 10:05:05;;;;;;;3.57;2.23;;;16.70;99.90;;;;;;5020516;28;20279;-63
2023/03/13 10:07:34;;;;;;;4.47;2.50;;;16.30;99.90;;;;;;5033509;28;20204;-64
2023/03/13 10:10:03;;;;;;;3.70;2.10;;;16.10;99.90;;;;;;5027912;28;20216;-63
2023/03/13 10:12:39;;;;;;;4.30;2.10;;;16.40;99.90;;;;;;5015268;28;20279;-63
2023/03/13 10:15:29;;;;;;;2.00;1.80;;;16.70;99.90;;;;;;5022511;28;20618;-64
2023/03/13 10:18:01;;;;;;;2.17;2.00;;;17.50;99.90;;;;;;5030580;28;20228;-64
2023/03/13 10:20:34;;;;;;;2.97;1.80;;;18.10;99.90;;;;;;5031025;28;20623;-63
2023/03/13 10:23:07;;;;;;;4.50;1.90;;;18.10;99.90;;;;;;5044306;28;20703;-64
2023/03/13 10:25:38;;;;;;;3.40;2.27;;;18.20;99.90;;;;;;5027633;28;20189;-64
2023/03/13 10:28:10;;;;;;;1.87;1.77;;;18.30;99.90;;;;;;5040705;28;20246;-63
2023/03/13 10:30:46;;;;;;;1.80;1.70;;;18.60;99.90;;;;;;5039059;28;20687;-64
2023/03/13 10:33:25;;;;;;;3.33;1.70;;;18.20;99.90;;;;;;5024483;28;20692;-64
2023/03/13 10:36:04;;;;;;;2.50;1.80;;;18.20;99.90;;;;;;5031949;28;20296;-64
2023/03/13 10:38:34;;;;;;;2.73;1.70;;;18.20;99.90;;;;;;5034661;28;20213;-64
2023/03/13 10:41:18;;;;;;;3.90;1.83;;;18.60;99.90;;;;;;5034427;28;20232;-64
2023/03/13 10:43:52;;;;;;;2.73;1.60;;;19.00;99.90;;;;;;5036005;28;20221;-64
2023/03/13 10:46:26;;;;;;;3.57;1.60;;;19.20;99.90;;;;;;5036025;28;20546;-64
2023/03/13 10:48:56;;;;;;;6.00;1.60;;;19.80;99.90;;;;;;5033476;28;20235;-64
2023/03/13 10:51:32;;;;;;;4.63;1.30;;;19.80;99.90;;;;;;5033616;28;20244;-64
2023/03/13 10:54:01;;;;;;;4.53;1.70;;;19.90;99.90;;;;;;5033885;28;20214;-64
2023/03/13 10:56:31;;;;;;;2.90;1.33;;;20.10;99.90;;;;;;5040200;28;20584;-64
2023/03/13 10:58:59;;;;;;;1.97;1.47;;;20.30;99.90;;;;;;5033879;28;20221;-65
2023/03/13 11:01:32;;;;;;;2.70;1.37;;;20.80;99.90;;;;;;5016501;28;20668;-65
2023/03/13 11:04:20;;;;;;;5.17;1.60;;;20.70;99.90;;;;;;5026979;28;20854;-64
2023/03/13 11:06:52;;;;;;;3.40;1.70;;;20.90;99.90;;;;;;5024263;28;20225;-64
2023/03/13 11:09:20;;;;;;;4.90;1.87;;;21.20;99.90;;;;;;5033095;28;20254;-64
2023/03/13 11:11:50;;;;;;;4.93;1.40;;;21.00;99.90;;;;;;5028347;28;20215;-64
2023/03/13 11:14:20;;;;;;;4.27;1.70;;;20.50;99.90;;;;;;5032492;28;20263;-64
2023/03/13 11:16:51;;;;;;;6.20;1.83;;;20.10;99.90;;;;;;5025552;28;20618;-63
2023/03/13 11:19:42;;;;;;;4.87;1.70;;;20.00;99.90;;;;;;5025084;28;20197;-64
2023/03/13 11:22:25;;;;;;;2.27;1.30;;;20.10;99.90;;;;;;5032468;28;20221;-64
2023/03/13 11:25:03;;;;;;;2.70;1.57;;;20.20;99.90;;;;;;5031399;28;20213;-64
2023/03/13 11:27:38;;;;;;;3.80;1.60;;;19.50;99.90;;;;;;5031408;28;20631;-64
2023/03/13 11:30:17;;;;;;;2.67;1.50;;;19.60;99.90;;;;;;5031356;28;20271;-65
2023/03/13 11:32:52;;;;;;;3.13;1.50;;;20.10;99.90;;;;;;5030693;28;20215;-64
2023/03/13 11:35:44;;;;;;;1.73;1.30;;;20.50;99.90;;;;;;5025422;28;20217;-64
2023/03/13 11:38:19;;;;;;;3.60;1.43;;;21.10;99.90;;;;;;5025417;28;20736;-65
2023/03/13 11:41:01;;;;;;;3.83;1.30;;;21.50;99.90;;;;;;5024946;28;20272;-65
2023/03/13 11:43:59;;;;;;;2.67;1.30;;;21.30;99.90;;;;;;5024683;28;20580;-64
2023/03/13 11:46:50;;;;;;;2.07;1.30;;;21.50;99.90;;;;;;5026504;28;20195;-63
2023/03/13 11:49:37;;;;;;;4.47;1.70;;;21.50;99.90;;;;;;5033039;28;20210;-64
2023/03/13 11:52:24;;;;;;;1.43;1.20;;;21.70;99.90;;;;;;5004885;28;20228;-64
2023/03/13 11:55:17;;;;;;;4.63;1.40;;;21.40;99.90;;;;;;5004577;28;20226;-65
2023/03/13 11:57:57;;;;;;;2.43;1.60;;;21.50;99.90;;;;;;5007039;28;20299;-64
2023/03/13 12:00:33;;;;;;;1.40;1.30;;;21.20;99.90;;;;;;5006108;28;20220;-64
2023/03/13 12:03:11;;;;;;;4.60;1.60;;;21.00;99.90;;;;;;5003960;28;20700;-64
2023/03/13 12:05:45;;;;;;;5.90;1.63;;;21.00;99.90;;;;;;5022249;28;20309;-64
2023/03/13 12:08:21;;;;;;;3.70;1.30;;;21.00;99.90;;;;;;5026171;28;20227;-64
2023/03/13 12:11:01;;;;;;;3.17;1.37;;;20.90;99.90;;;;;;5026800;28;20226;-64
2023/03/13 12:13:32;;;;;;;3.63;1.60;;;21.10;99.90;;;;;;5022831;28;20300;-64
2023/03/13 12:16:06;;;;;;;2.80;1.63;;;20.90;99.90;;;;;;5029710;28;20197;-64
2023/03/13 12:18:37;;;;;;;2.83;1.50;;;20.60;99.90;;;;;;5029329;28;20315;-64
2023/03/13 12:21:13;;;;;;;1.67;1.30;;;20.10;99.90;;;;;;5012010;28;20218;-64
2023/03/13 12:23:50;;;;;;;1.67;1.37;;;20.20;99.90;;;;;;5000803;28;20271;-64
2023/03/13 12:26:20;;;;;;;5.67;1.73;;;20.00;99.90;;;;;;5006472;28;20713;-64
2023/03/13 12:28:57;;;;;;;2.40;1.37;;;19.80;99.90;;;;;;5007930;28;20225;-64
2023/03/13 12:31:29;;;;;;;1.90;1.40;;;19.70;99.90;;;;;;5015780;28;20232;-64
2023/03/13 12:34:05;;;;;;;4.97;1.50;;;19.90;99.90;;;;;;5012887;28;20256;-64
2023/03/13 12:36:40;;;;;;;2.37;1.60;;;19.90;99.90;;;;;;5015087;28;20221;-64
2023/03/13 12:39:22;;;;;;;3.10;1.60;;;19.60;99.90;;;;;;5012130;28;20229;-64
2023/03/13 12:42:01;;;;;;;2.47;1.50;;;19.10;99.90;;;;;;4993547;28;20226;-64
2023/03/13 12:44:30;;;;;;;4.40;1.60;;;18.70;99.90;;;;;;5010489;28;20230;-65
2023/03/13 12:47:09;;;;;;;3.33;1.73;;;18.40;99.90;;;;;;5012770;28;20292;-64
2023/03/13 12:50:06;;;;;;;6.23;1.87;;;18.50;99.90;;;;;;4999291;28;20220;-64
2023/03/13 12:52:50;;;;;;;3.27;1.50;;;19.00;99.90;;;;;;5005643;28;20545;-64
2023/03/13 12:55:58;;;;;;;5.37;1.60;;;19.40;99.90;;;;;;5015232;28;20221;-64
2023/03/13 12:58:38;;;;;;;2.50;1.50;;;19.50;99.90;;;;;;5031879;28;20659;-64
2023/03/13 13:01:10;;;;;;;7.53;2.27;;;19.80;99.90;;;;;;5030958;28;20196;-64
2023/03/13 13:03:47;;;;;;;3.63;1.70;;;19.50;99.90;;;;;;5019928;28;20651;-64
2023/03/13 13:06:16;;;;;;;4.60;1.80;;;19.30;99.90;;;;;;5034260;28;20244;-64
2023/03/13 13:08:48;;;;;;;3.20;1.57;;;19.30;99.90;;;;;;5030868;28;20228;-64
2023/03/13 13:11:53;;;;;;;3.63;1.60;;;19.20;99.90;;;;;;5028326;28;20229;-65
2023/03/13 13:15:03;;;;;;;4.53;1.73;;;19.10;99.90;;;;;;4963727;28;20239;-65
2023/03/13 13:17:45;;;;;;;4.03;1.70;;;19.00;99.90;;;;;;4972716;28;20227;-64
2023/03/13 13:20:29;;;;;;;1.73;1.60;;;19.00;99.90;;;;;;5012041;28;20232;-64
2023/03/13 13:23:26;;;;;;;7.77;1.77;;;19.20;99.90;;;;;;5029141;28;20278;-64
2023/03/13 13:25:56;;;;;;;3.77;1.83;;;19.30;99.90;;;;;;5030283;28;20209;-64
2023/03/13 13:28:36;;;;;;;5.90;1.87;;;19.50;99.90;;;;;;5030304;28;20721;-64
2023/03/13 13:31:43;;;;;;;6.67;1.77;;;19.40;99.90;;;;;;5027161;28;20799;-64
2023/03/13 13:35:06;;;;;;;5.33;1.40;;;19.20;99.90;;;;;;5027997;28;20217;-64
2023/03/13 13:37:34;;;;;;;3.90;1.50;;;18.80;99.90;;;;;;5007059;28;20708;-64
2023/03/13 13:40:23;;;;;;;4.67;1.77;;;18.70;99.90;;;;;;5033754;28;20198;-64
2023/03/13 13:42:54;;;;;;;2.83;1.53;;;18.50;99.90;;;;;;5014220;28;20233;-64
2023/03/13 13:45:29;;;;;;;2.40;1.80;;;18.60;99.90;;;;;;5012027;28;20303;-64
2023/03/13 13:48:35;;;;;;;4.80;1.70;;;18.60;99.90;;;;;;5012436;28;20803;-64
2023/03/13 13:51:24;;;;;;;3.17;1.63;;;18.40;99.90;;;;;;4951191;28;20227;-64
2023/03/13 13:53:56;;;;;;;4.60;1.80;;;18.40;99.90;;;;;;4952295;29;20231;-64
2023/03/13 13:56:43;;;;;;;2.87;1.50;;;18.20;99.90;;;;;;4994591;28;20226;-64
2023/03/13 13:59:46;;;;;;;2.17;1.70;;;17.90;99.90;;;;;;5011509;28;20231;-64
2023/03/13 14:02:31;;;;;;;2.37;1.50;;;17.80;99.90;;;;;;4937751;29;20228;-64
2023/03/13 14:05:04;;;;;;;3.47;1.77;;;17.80;99.90;;;;;;4950701;29;20263;-64
2023/03/13 14:07:54;;;;;;;4.97;1.47;;;17.70;99.90;;;;;;5008797;28;20595;-64
2023/03/13 14:10:32;;;;;;;7.83;1.90;;;17.70;99.90;;;;;;5022133;28;20205;-63
2023/03/13 14:13:04;;;;;;;6.33;2.00;;;17.60;99.90;;;;;;5029083;28;20665;-64
2023/03/13 14:15:35;;;;;;;2.87;1.90;;;17.80;99.90;;;;;;5033854;28;20806;-64